Airfield :
LOGIN :

Register | Disclaimer

   EN    FR    IT 

 










Legend :    VFR   Marginal VFR   IFR   Intensive IFR   Very Intensive IFR
Visi :
Ceiling :
>= 8 km
>= 3000ft
5 to 8 km
1000 to 3000 ft
1500m to 5 km
500 to 1000 ft
800 to 1500m
200 to 500 ft
< 800m
< 200 ft
Symbols :   Thunderstorms  Fog  Heavy snow  Heavy precipitations  Wind > 20 kt
SIGMETs :     Misc.  Thunderstorms  Icing  Turbulence  Mountain Waves  Volcanic Ashes







- Airport Elevation : 1768 ft


LEHC - Huesca Pirineos

CURRENT METAR :
  • 230000Z AUTO 24009KT 9999 NCD 08/07 Q1025

EXPIRED METARs :
  • 222330Z AUTO 24009KT 9999 NCD 08/07 Q1026
  • 222300Z AUTO 24009KT 9999 NCD 09/06 Q1026
  • 222230Z AUTO 24008KT 9999 NCD 09/06 Q1025
  • 222200Z AUTO 24010KT 9999 NCD 09/06 Q1025
  • 222130Z AUTO 23010KT 9999 NCD 09/06 Q1025

TAF TAF LEHC
Valid from the 22 at 09:00 until the 23 at 09:00 UTC


220800Z 2209/2309 28015KT 9999 FEW030 TX17/2213Z TN06/2306Z
TEMPO 2210/2218 29018G30KT
BECMG 2300/2302 27005KT
No reported NOTAMs for that airfield.



MET'MAP, your aeronautical weather chart ! - Copyright ORBIFLY December 2007 - Disclaimer

ORBIFLY MET'MAP TEAM :

Programming & Development : Alexandra Zaïnal
Concept & Development : Baudouin d'Aumeries
Co-Development & Prog : Marc-Olivier Méhu
Technical & hardware support : Manuel Goepfert

Contact : metmap@orbifly.com




SOURCES & CREDITS :

   NOAA